Latest Coastal Weather Observations for Merimbula

IDN60701

Issued at 7:21 pm EST Sunday 24 May 2015 (issued every 10 minutes, with the page automatically refreshed every 10 minutes)

About coastal observations | Map of coastal stations | Coastal observations for NSW | Marine services | Other Formats
Station Details ID: 069147 Name: MERIMBULA AIRPORT AWS Lat: -36.91 Lon: 149.90 Height: 1.5 m
Data from the previous 72 hours. | See also: Recent months at Merimbula
Date/Time
EST
Temp

°C
Wind Pressure Rain
since 9am
mm
Weather Cloud Vis
km
Sea
Height
m
Swell
Dir
 
Speed
knots
Gust
knots
hPa Trend Height
m
Period
s
Dir
24/07:00pm 6.5 WSW 3 4 1031.7 - 0.0 - - 10 - - - -
24/06:30pm 6.9 W 3 4 1031.6 - 0.0 - - 10 - - - -
24/06:00pm 7.6 WNW 3 5 1031.5 - 0.0 - - 10 - - - -
24/05:30pm 9.2 NW 3 5 1031.3 - 0.0 - - 10 - - - -
24/05:00pm 10.5 CALM 0 0 1031.1 - 0.0 - - 10 - - - -
24/04:30pm 12.6 CALM 0 0 1030.8 - 0.0 - - 10 - - - -
24/04:00pm 15.2 CALM 0 0 1030.8 - 0.0 - - 10 - - - -
24/03:30pm 15.8 CALM 0 0 1030.7 - 0.0 - - 10 - - - -
24/03:00pm 15.9 E 5 8 1030.6 - 0.0 - - 10 - - - -
24/02:30pm 16.1 ENE 5 7 1030.6 - 0.0 - - 10 - - - -
24/02:00pm 16.8 NE 3 5 1030.5 - 0.0 - - 10 - - - -
24/01:30pm 16.2 ENE 5 7 1030.6 - 0.0 - - 10 - - - -
24/01:00pm 16.7 N 2 6 1030.8 - 0.0 - - 10 - - - -
24/12:30pm 15.6 W 4 7 1031.0 - 0.0 - - 10 - - - -
24/12:00pm 15.9 NNW 3 7 1031.3 - 0.0 - - 10 - - - -
24/11:30am 14.9 WSW 6 8 1031.7 - 0.0 - - 10 - - - -
24/11:00am 14.6 W 6 8 1032.1 - 0.0 - - 10 - - - -
24/10:30am 14.0 W 6 9 1032.4 - 0.0 - - 10 - - - -
24/10:00am 13.1 WNW 7 9 1032.6 - 0.0 - - 10 - - - -
24/09:30am 11.9 WNW 9 11 1032.6 - 0.0 - - 10 - - - -
24/09:00am 10.3 WNW 5 7 1032.6 - 0.2 - - 10 - - - -
24/08:30am 8.9 WNW 6 8 1032.5 - 0.2 - - 10 - - - -
24/08:00am 6.9 W 4 7 1032.4 - 0.2 - - 10 - - - -
24/07:30am 5.5 W 5 7 1032.2 - 0.2 - - 10 - - - -
24/07:00am 5.5 WNW 6 8 1032.2 - 0.2 - - 10 - - - -
24/06:30am 6.0 NW 6 7 1032.0 - 0.2 - - 10 - - - -
24/06:00am 5.7 WNW 4 7 1031.6 - 0.2 - - 10 - - - -
24/05:30am 5.4 WNW 3 5 1031.3 - 0.2 - - 10 - - - -
24/05:00am 5.0 WNW 2 4 1031.1 - 0.2 - - 10 - - - -
24/04:30am 5.5 W 5 9 1031.1 - 0.2 - - 10 - - - -
24/04:00am 4.7 SSW 3 7 1031.0 - 0.2 - - 10 - - - -
24/03:30am 5.8 WNW 5 8 1030.9 - 0.2 - - 10 - - - -
24/03:00am 6.0 WNW 7 9 1030.9 - 0.2 - - 10 - - - -
24/02:30am 4.7 CALM 0 0 1030.9 - 0.2 - - 10 - - - -
24/02:00am 4.4 CALM 0 0 1031.0 - 0.2 - - 10 - - - -
24/01:30am 4.1 CALM 0 3 1030.9 - 0.2 - - 9 - - - -
24/01:00am 5.8 WNW 5 7 1030.9 - 0.2 - - 10 - - - -
24/12:30am 5.4 NW 7 9 1031.0 - 0.2 - - 7 - - - -
24/12:21am 5.5 NNW 6 9 1031.0 - 0.2 - - 7 - - - -
24/12:00am 5.0 WNW 4 7 1031.1 - 0.2 - - 5 - - - -
 
Date/Time
EST
Temp

°C
Wind Pressure Rain
since 9am
mm
Weather Cloud Vis
km
Sea
Height
m
Swell
Dir
 
Speed
knots
Gust
knots
hPa Trend Height
m
Period
s
Dir
23/11:30pm 3.9 CALM 0 0 1031.1 - 0.2 - - 5 - - - -
23/11:00pm 3.8 CALM 0 0 1031.0 - 0.2 - - 4 - - - -
23/10:51pm 4.3 CALM 0 0 1031.0 - 0.2 - - 5 - - - -
23/10:43pm 4.3 CALM 0 0 1030.9 - 0.2 - - 6 - - - -
23/10:30pm 4.5 CALM 0 0 1030.9 - 0.2 - - 5 - - - -
23/10:00pm 5.0 CALM 0 0 1031.1 - 0.2 - - 4 - - - -
23/09:52pm 5.6 CALM 0 0 1031.1 - 0.2 - - 5 - - - -
23/09:30pm 6.0 CALM 0 0 1031.2 - 0.2 - - 7 - - - -
23/09:29pm 6.1 CALM 0 0 1031.2 - 0.2 - - 7 - - - -
23/09:00pm 5.2 CALM 0 0 1031.0 - 0.2 - Mostly clear 4 - - - -
23/08:39pm 5.4 SW 2 5 1030.9 - 0.2 - - 5 - - - -
23/08:30pm 5.9 SSW 4 5 1030.9 - 0.2 - - 6 - - - -
23/08:00pm 6.1 CALM 0 0 1030.7 - 0.2 - - 8 - - - -
23/07:30pm 7.4 WNW 2 7 1030.4 - 0.2 - - 10 - - - -
23/07:00pm 7.7 NNW 4 5 1030.2 - 0.2 - - 10 - - - -
23/06:30pm 8.5 WSW 3 5 1030.0 - 0.2 - - 10 - - - -
23/06:00pm 9.1 NNW 3 6 1029.8 - 0.2 - - 10 - - - -
23/05:30pm 9.4 W 3 4 1029.7 - 0.2 - - 10 - - - -
23/05:00pm 11.5 SSE 6 8 1029.5 - 0.2 - - 10 - - - -
23/04:30pm 12.6 SSE 6 8 1029.2 - 0.2 - - 10 - - - -
23/04:00pm 13.6 SE 8 11 1029.1 - 0.2 - - 10 - - - -
23/03:30pm 14.6 ESE 6 10 1028.9 - 0.2 - - 10 - - - -
23/03:00pm 15.2 ENE 4 6 1028.6 - 0.2 - - 10 - - - -
23/02:30pm 15.2 E 5 8 1028.5 - 0.2 - - 10 - - - -
23/02:00pm 15.0 ESE 6 9 1028.5 - 0.2 - - 10 - - - -
23/01:30pm 14.9 ENE 4 6 1028.8 - 0.2 - - 10 - - - -
23/01:00pm 14.9 ESE 4 6 1029.0 - 0.2 - - 10 - - - -
23/12:30pm 14.5 WNW 3 5 1029.4 - 0.2 - - 10 - - - -
23/12:00pm 13.7 S 4 7 1030.0 - 0.2 Recent precip. - 10 - - - -
23/11:30am 13.7 WNW 5 9 1030.5 - 0.2 - - 10 - - - -
23/11:00am 13.3 WNW 8 13 1030.9 - 0.0 - - 10 - - - -
23/10:30am 13.1 W 8 11 1030.9 - 0.0 - - 10 - - - -
23/10:00am 12.2 W 8 11 1030.8 - 0.0 - - 10 - - - -
23/09:30am 11.7 W 7 9 1031.0 - 0.0 - - 10 - - - -
23/09:00am 11.1 W 7 10 1031.0 - 0.2 - - 10 - - - -
23/08:30am 10.1 WNW 7 10 1030.8 - 0.2 - - 10 - - - -
23/08:00am 9.2 W 8 11 1030.7 - 0.2 - - 10 - - - -
23/07:30am 8.0 WNW 9 12 1030.3 - 0.2 - - 10 - - - -
23/07:00am 5.9 WNW 4 10 1029.9 - 0.2 - - 10 - - - -
23/06:30am 6.8 NW 6 8 1029.8 - 0.2 - - 10 - - - -
23/06:00am 6.5 NW 6 8 1029.6 - 0.2 - - 10 - - - -
23/05:30am 6.0 SW 5 6 1029.4 - 0.2 - - 10 - - - -
23/05:00am 6.1 SW 4 5 1028.9 - 0.2 - - 10 - - - -
23/04:30am 6.7 SW 3 4 1028.7 - 0.2 - - 10 - - - -
23/04:00am 7.9 SSW 5 7 1028.3 - 0.2 - - 10 - - - -
23/03:30am 9.7 W 9 11 1028.3 - 0.2 - - 10 - - - -
23/03:00am 10.2 W 8 11 1028.3 - 0.2 - - 10 - - - -
23/02:30am 10.3 W 8 11 1028.3 - 0.2 - - 10 - - - -
23/02:00am 10.2 W 8 11 1028.4 - 0.2 - - 10 - - - -
23/01:30am 8.0 SW 5 6 1028.5 - 0.2 - - 10 - - - -
23/01:00am 8.0 SSW 5 6 1028.8 - 0.2 - - 10 - - - -
23/12:30am 7.3 SW 4 5 1028.7 - 0.2 - Partly cloudy 10 - - - -
23/12:00am 6.5 SSW 4 5 1028.7 - 0.2 - - 10 - - - -
 
Date/Time
EST
Temp

°C
Wind Pressure Rain
since 9am
mm
Weather Cloud Vis
km
Sea
Height
m
Swell
Dir
 
Speed
knots
Gust
knots
hPa Trend Height
m
Period
s
Dir
22/11:30pm 6.6 SW 4 5 1028.9 - 0.2 - - 10 - - - -
22/11:00pm 6.9 W 1 6 1028.8 - 0.2 - Partly cloudy 10 - - - -
22/10:30pm 6.0 CALM 0 0 1029.0 - 0.2 - Partly cloudy 10 - - - -
22/10:00pm 6.0 CALM 0 0 1028.9 - 0.2 - - 10 - - - -
22/09:30pm 6.5 CALM 0 0 1029.0 - 0.2 - - 10 - - - -
22/09:00pm 7.5 CALM 0 0 1029.0 - 0.2 - - 10 - - - -
22/08:30pm 7.9 CALM 0 0 1028.9 - 0.2 - - 10 - - - -
22/08:00pm 9.9 WSW 4 5 1028.7 - 0.2 - - 10 - - - -
22/07:30pm 11.0 SW 5 7 1028.5 - 0.2 - - 10 - - - -
22/07:00pm 11.3 SW 7 14 1028.1 - 0.2 - - 10 - - - -
22/06:30pm 11.4 WSW 7 9 1027.6 - 0.2 - - 10 - - - -
22/06:00pm 11.3 SW 6 10 1027.3 - 0.2 - - 10 - - - -
22/05:30pm 11.9 SSW 9 14 1027.3 - 0.2 - Partly cloudy 10 - - - -
22/05:00pm 12.4 SW 9 13 1026.9 - 0.2 - - 10 - - - -
22/04:30pm 13.1 SW 8 11 1026.5 - 0.2 - Partly cloudy 10 - - - -
22/04:00pm 13.6 SSW 7 11 1026.3 - 0.2 - Partly cloudy 10 - - - -
22/03:30pm 12.8 S 7 11 1026.0 - 0.2 - Partly cloudy 10 - - - -
22/03:17pm 12.8 S 6 9 1025.9 - 0.2 - Partly cloudy 10 - - - -
22/03:04pm 12.8 S 9 15 1025.8 - 0.2 - Partly cloudy 5 - - - -
22/03:00pm 13.2 S 9 15 1025.8 - 0.2 - Mostly cloudy 10 - - - -
22/02:37pm 13.3 SSW 10 14 1025.5 - 0.2 - Partly cloudy 10 - - - -
22/02:30pm 12.9 SSW 10 14 1025.5 - 0.2 - Partly cloudy 9 - - - -
22/02:25pm 13.2 SSW 10 15 1025.5 - 0.2 - Partly cloudy 5 - - - -
22/02:00pm 15.4 SSW 10 15 1025.2 - 0.2 - - 10 - - - -
22/01:30pm 13.6 S 12 20 1025.3 - 0.2 - Partly cloudy 10 - - - -
22/01:00pm 15.1 SW 10 15 1025.0 - 0.2 - Partly cloudy 10 - - - -
22/12:30pm 14.8 SW 9 13 1025.3 - 0.2 - Partly cloudy 10 - - - -
22/12:00pm 14.7 SSW 12 18 1025.4 - 0.0 - Mostly cloudy 10 - - - -
22/11:30am 14.9 SSW 10 16 1025.7 - 0.0 - Partly cloudy 10 - - - -
22/11:00am 14.4 SSW 7 11 1025.9 - 0.0 - Partly cloudy 10 - - - -
22/10:30am 13.9 SW 7 10 1026.0 - 0.0 - Partly cloudy 10 - - - -
22/10:00am 13.1 SW 9 16 1025.8 - 0.0 - Partly cloudy 10 - - - -
22/09:30am 12.7 SW 12 22 1025.5 - 0.0 - Partly cloudy 10 - - - -
22/09:00am 12.3 SW 13 19 1025.2 - 27.4 - Mostly cloudy 10 - - - -
22/08:30am 11.5 SW 7 12 1025.1 - 27.4 - Partly cloudy 10 - - - -
22/08:00am 11.8 SW 11 16 1024.8 - 27.4 - Partly cloudy 9 - - - -
22/07:30am 12.0 SSW 7 13 1024.5 - 27.2 - Partly cloudy 10 - - - -
22/07:00am 12.1 SSW 5 7 1023.6 - 27.2 - Cloudy 10 - - - -
22/06:30am 12.1 SW 7 12 1023.3 - 27.2 - Cloudy 10 - - - -
22/06:00am 12.0 SSW 9 17 1022.7 - 27.2 - Mostly cloudy 10 - - - -
22/05:30am 12.0 SSW 8 11 1022.4 - 27.2 - Cloudy 10 - - - -
22/05:00am 12.0 SSW 9 13 1022.3 - 27.2 - Partly cloudy 10 - - - -
22/04:30am 12.1 SSW 8 12 1022.1 - 27.2 - Cloudy 10 - - - -
22/04:04am 12.2 SSW 8 11 1022.1 - 27.2 - Partly cloudy 10 - - - -
22/04:00am 12.2 SSW 9 16 1022.1 - 27.2 - Partly cloudy 10 - - - -
22/03:30am 12.4 SSW 9 13 1022.0 - 27.2 - Partly cloudy 5 - - - -
22/03:21am 12.5 SSW 9 16 1022.0 - 27.2 - Partly cloudy 5 - - - -
22/03:07am 12.5 SSW 10 15 1022.0 - 27.0 - Partly cloudy 10 - - - -
22/03:00am 12.5 SSW 9 15 1021.9 - 27.0 Rain Cloudy 8 - - - -
22/02:48am 12.6 SSW 9 13 1021.9 - 26.8 - Partly cloudy 5 - - - -
22/02:30am 12.6 SSW 10 15 1021.9 - 26.6 - Partly cloudy 10 - - - -
22/02:13am 12.6 SSW 9 14 1021.9 - 26.6 - Partly cloudy 10 - - - -
22/02:00am 12.6 SSW 8 13 1021.9 - 26.6 - Partly cloudy 4 - - - -
22/01:33am 12.6 SSW 7 11 1021.9 - 23.4 - Partly cloudy 5 - - - -
22/01:30am 12.6 SSW 7 11 1021.9 - 23.4 - Partly cloudy 7 - - - -
22/01:02am 12.6 SW 7 10 1021.8 - 23.0 - Partly cloudy 8 - - - -
22/01:00am 12.6 SW 6 9 1021.8 - 23.0 - Partly cloudy 10 - - - -
22/12:30am 12.7 SSW 8 11 1021.9 - 21.2 - Partly cloudy 5 - - - -
22/12:29am 12.6 SSW 8 11 1021.9 - 21.2 - Partly cloudy 5 - - - -
22/12:00am 12.6 SW 7 9 1021.8 - 20.8 Recent precip. Cloudy 10 - - - -
 
Date/Time
EST
Temp

°C
Wind Pressure Rain
since 9am
mm
Weather Cloud Vis
km
Sea
Height
m
Swell
Dir
 
Speed
knots
Gust
knots
hPa Trend Height
m
Period
s
Dir
21/11:42pm 12.7 SSW 7 11 1021.9 - 20.8 - Partly cloudy 7 - - - -
21/11:30pm 12.8 SSW 8 12 1021.9 - 20.6 - Partly cloudy 5 - - - -
21/11:26pm 12.8 SSW 8 12 1021.8 - 20.6 - Partly cloudy 5 - - - -
21/11:00pm 12.7 SW 7 15 1021.6 - 20.0 - Partly cloudy 10 - - - -
21/10:30pm 12.6 WSW 6 8 1021.7 - 20.0 - Partly cloudy 10 - - - -
21/10:16pm 12.6 SW 5 9 1021.8 - 19.8 - Partly cloudy 10 - - - -
21/10:00pm 12.7 SW 8 13 1021.8 - 19.6 - Partly cloudy 5 - - - -
21/09:58pm 12.6 SW 8 13 1021.9 - 19.6 - Partly cloudy 5 - - - -
21/09:49pm 12.6 SW 6 12 1021.8 - 19.0 - Partly cloudy 7 - - - -
21/09:30pm 12.5 SW 6 11 1021.8 - 18.2 - Partly cloudy 4 - - - -
21/09:00pm 12.4 WSW 7 11 1021.8 - 15.8 Rain Cloudy 3 - - - -
21/08:30pm 12.3 SW 7 9 1021.8 - 12.2 - Partly cloudy 2 - - - -
21/08:00pm 12.3 SW 8 11 1021.4 - 7.4 - Partly cloudy 2 - - - -
21/07:30pm 12.6 SW 7 11 1021.3 - 2.8 - Partly cloudy 4 - - - -

Other Formats:

Comma delimited format used in spreadsheet applications
http://www.bom.gov.au/fwo/IDN60701/IDN60701.95929.axf

JavaScript Object Notation format (JSON) in row-major order
http://www.bom.gov.au/fwo/IDN60701/IDN60701.95929.json